createdAt,value
2018-12-02T00:01:10.278Z,19.07
2018-12-02T00:03:40.300Z,19.63
2018-12-02T00:06:08.813Z,18.83
2018-12-02T00:08:37.254Z,18.93
2018-12-02T00:11:06.745Z,19.50
2018-12-02T00:13:35.203Z,18.60
2018-12-02T00:16:03.659Z,19.23
2018-12-02T00:18:32.158Z,19.97
2018-12-02T00:21:01.254Z,20.03
2018-12-02T00:23:29.743Z,20.40
2018-12-02T00:26:06.038Z,21.03
2018-12-02T00:28:38.079Z,21.40
2018-12-02T00:31:06.909Z,22.13
2018-12-02T00:33:35.389Z,21.67
2018-12-02T00:36:05.118Z,21.60
2018-12-02T00:38:33.614Z,21.87
2018-12-02T00:41:02.061Z,20.37
2018-12-02T00:43:30.804Z,20.97
2018-12-02T00:45:59.360Z,20.30
2018-12-02T00:48:27.837Z,20.77
2018-12-02T00:50:56.287Z,21.50
2018-12-02T00:53:24.842Z,22.77
2018-12-02T00:56:00.964Z,21.53
2018-12-02T00:58:38.568Z,21.53
2018-12-02T01:01:07.102Z,21.20
2018-12-02T01:03:35.603Z,22.33
2018-12-02T01:06:04.079Z,23.43
2018-12-02T01:08:32.526Z,24.27
2018-12-02T01:11:01.099Z,24.13
2018-12-02T01:13:29.669Z,24.13
2018-12-02T01:15:58.146Z,24.00
2018-12-02T01:18:27.747Z,23.17
2018-12-02T01:21:04.004Z,23.50
2018-12-02T01:23:32.442Z,22.10
2018-12-02T01:26:04.099Z,21.93
2018-12-02T01:28:32.572Z,21.70
2018-12-02T01:31:01.063Z,23.00
2018-12-02T01:33:29.579Z,22.60
2018-12-02T01:35:58.044Z,20.80
2018-12-02T01:38:28.139Z,20.53
2018-12-02T01:40:56.617Z,21.77
2018-12-02T01:43:25.072Z,20.57
2018-12-02T01:45:53.812Z,21.73
2018-12-02T01:48:22.563Z,22.00
2018-12-02T01:50:50.997Z,21.33
2018-12-02T01:53:19.468Z,23.20
2018-12-02T01:55:47.948Z,24.40
2018-12-02T01:58:16.401Z,25.33
2018-12-02T02:00:48.348Z,25.37
2018-12-02T02:03:16.791Z,24.37
2018-12-02T02:05:45.372Z,25.37
2018-12-02T02:08:13.919Z,25.13
2018-12-02T02:10:42.444Z,26.57
2018-12-02T02:13:10.887Z,26.43
2018-12-02T02:15:39.456Z,27.40
2018-12-02T02:18:07.953Z,28.57
2018-12-02T02:20:36.419Z,27.57
2018-12-02T02:23:05.345Z,28.50
2018-12-02T02:25:33.809Z,28.93
2018-12-02T02:28:03.070Z,26.23
2018-12-02T02:30:32.984Z,25.60
2018-12-02T02:33:01.454Z,26.43
2018-12-02T02:35:30.002Z,25.70
2018-12-02T02:37:58.839Z,23.83
2018-12-02T02:40:28.983Z,24.60
2018-12-02T02:42:57.548Z,24.63
2018-12-02T03:02:33.543Z,24.60
2018-12-02T03:05:02.005Z,23.73
2018-12-02T03:07:30.445Z,25.50
2018-12-02T03:09:58.915Z,23.57
2018-12-02T03:12:27.383Z,24.00
2018-12-02T03:14:55.834Z,24.30
2018-12-02T03:47:37.002Z,23.10
2018-12-02T03:50:17.664Z,22.07
2018-12-02T03:52:45.105Z,21.57
2018-12-02T03:55:13.645Z,20.50
2018-12-02T03:57:42.148Z,20.17
2018-12-02T04:00:15.824Z,20.30
2018-12-02T04:02:44.596Z,20.37
2018-12-02T04:05:14.856Z,19.23
2018-12-02T04:07:43.286Z,19.40
2018-12-02T04:10:12.769Z,18.90
2018-12-02T04:12:41.239Z,18.33
2018-12-02T04:15:24.399Z,16.33
2018-12-02T04:48:04.946Z,9.90
2018-12-02T04:50:33.551Z,9.10
2018-12-02T04:53:03.067Z,7.97
2018-12-02T04:55:33.159Z,7.37
2018-12-02T04:58:01.592Z,7.37
2018-12-02T05:00:30.058Z,8.43
2018-12-02T05:03:00.162Z,8.17
2018-12-02T05:05:28.606Z,5.60
2018-12-02T05:07:57.039Z,6.03
2018-12-02T05:10:25.493Z,4.73
2018-12-02T05:12:53.951Z,4.80
2018-12-02T05:15:22.762Z,4.53
2018-12-02T05:17:51.267Z,4.00
2018-12-02T05:20:20.788Z,3.57
2018-12-02T05:22:49.274Z,3.63
2018-12-02T05:25:18.632Z,3.67
2018-12-02T05:27:46.701Z,3.90
2018-12-02T05:30:18.867Z,3.50
2018-12-02T05:32:48.328Z,3.43
2018-12-02T05:35:16.793Z,3.90
2018-12-02T05:37:45.441Z,4.10
2018-12-02T05:40:20.307Z,3.97
2018-12-02T05:42:53.437Z,4.80
2018-12-02T05:45:22.406Z,5.17
2018-12-02T05:47:50.860Z,5.77
2018-12-02T05:50:21.022Z,5.83
2018-12-02T05:52:52.522Z,6.33
2018-12-02T05:55:23.428Z,7.80
2018-12-02T05:57:51.904Z,8.30
2018-12-02T06:00:21.458Z,10.07
2018-12-02T06:02:49.940Z,12.40
2018-12-02T06:08:39.883Z,13.10
2018-12-02T06:11:10.150Z,14.23
2018-12-02T06:13:46.169Z,12.20
2018-12-02T06:16:14.600Z,12.10
2018-12-02T06:18:43.064Z,12.83
2018-12-02T06:21:19.459Z,11.97
2018-12-02T06:23:47.899Z,13.20
2018-12-02T06:26:18.156Z,11.93
2018-12-02T06:28:46.606Z,13.57
2018-12-02T06:31:15.046Z,12.13
2018-12-02T06:33:43.508Z,13.07
2018-12-02T06:36:11.998Z,12.13
2018-12-02T06:38:40.858Z,13.87
2018-12-02T06:41:09.379Z,13.47
2018-12-02T06:43:37.836Z,13.63
2018-12-02T06:46:06.303Z,11.70
2018-12-02T06:48:36.697Z,11.90
2018-12-02T06:51:05.571Z,11.87
2018-12-02T06:53:34.004Z,9.87
2018-12-02T06:56:10.808Z,11.20
2018-12-02T06:59:56.076Z,10.47
2018-12-02T07:02:37.190Z,9.73
2018-12-02T07:05:07.675Z,9.87
2018-12-02T07:07:36.116Z,11.07
2018-12-02T07:10:07.827Z,11.83
2018-12-02T07:12:36.316Z,12.73
2018-12-02T07:15:04.877Z,13.33
2018-12-02T07:17:33.335Z,11.90
2018-12-02T07:20:03.507Z,14.33
2018-12-02T07:22:33.556Z,11.80
2018-12-02T07:25:03.167Z,15.37
2018-12-02T07:27:31.616Z,14.80
2018-12-02T07:30:01.001Z,12.93
2018-12-02T07:32:29.447Z,11.40
2018-12-02T07:34:57.894Z,9.93
2018-12-02T07:37:26.371Z,9.93
2018-12-02T07:40:32.780Z,11.20
2018-12-02T07:43:01.718Z,9.40
2018-12-02T07:45:30.150Z,9.47
2018-12-02T07:48:00.227Z,9.53
2018-12-02T07:50:28.686Z,9.23
2018-12-02T07:52:57.142Z,8.97
2018-12-02T07:55:25.604Z,8.47
2018-12-02T07:57:54.073Z,7.90
2018-12-02T08:00:22.503Z,7.50
2018-12-02T08:02:50.958Z,7.37
2018-12-02T08:18:52.865Z,5.63
2018-12-02T08:21:21.339Z,3.73
2018-12-02T08:23:49.831Z,3.70
2018-12-02T08:26:18.280Z,4.93
2018-12-02T08:28:46.729Z,3.37
2018-12-02T08:31:15.173Z,3.47
2018-12-02T08:33:43.627Z,3.40
2018-12-02T08:36:12.092Z,4.10
2018-12-02T08:38:40.578Z,3.47
2018-12-02T08:41:10.446Z,4.53
2018-12-02T08:43:38.893Z,3.27
2018-12-02T08:46:07.351Z,3.10
2018-12-02T08:48:35.798Z,3.60
2018-12-02T08:51:04.271Z,3.27
2018-12-02T08:53:32.835Z,3.00
2018-12-02T08:56:01.300Z,2.80
2018-12-02T08:58:29.764Z,2.90
2018-12-02T09:00:58.226Z,2.83
2018-12-02T09:03:26.687Z,2.80
2018-12-02T09:05:55.152Z,3.57
2018-12-02T09:08:23.769Z,2.73
2018-12-02T09:10:52.238Z,2.77
2018-12-02T09:13:20.707Z,3.13
2018-12-02T09:15:49.201Z,3.20
2018-12-02T09:18:17.675Z,3.10
2018-12-02T09:20:46.120Z,3.47
2018-12-02T09:23:15.155Z,3.50
2018-12-02T09:25:43.653Z,5.67
2018-12-02T09:28:12.128Z,6.53
2018-12-02T09:30:40.595Z,6.67
2018-12-02T09:33:09.097Z,6.80
2018-12-02T09:35:37.554Z,7.07
2018-12-02T09:38:06.473Z,6.40
2018-12-02T09:40:36.130Z,5.97
2018-12-02T09:43:05.010Z,5.30
2018-12-02T09:45:33.494Z,5.53
2018-12-02T09:48:03.105Z,4.60
2018-12-02T09:50:31.562Z,4.70
2018-12-02T09:53:07.753Z,4.83
2018-12-02T09:55:40.874Z,4.70
2018-12-02T09:58:12.857Z,3.40
2018-12-02T10:00:43.288Z,4.00
2018-12-02T10:03:11.770Z,3.33
2018-12-02T10:05:48.117Z,3.43
2018-12-02T10:08:16.558Z,3.83
2018-12-02T10:10:45.015Z,2.73
2018-12-02T10:13:15.395Z,3.73
2018-12-02T10:15:44.492Z,3.47
2018-12-02T10:18:13.177Z,3.23
2018-12-02T10:20:42.184Z,3.13
2018-12-02T10:23:10.759Z,3.57
2018-12-02T10:25:47.680Z,3.03
2018-12-02T10:28:16.264Z,2.80
2018-12-02T10:30:46.380Z,2.77
2018-12-02T10:33:14.829Z,3.17
2018-12-02T10:35:43.294Z,2.83
2018-12-02T10:38:11.728Z,3.53
2018-12-02T10:40:40.200Z,2.47
2018-12-02T10:43:08.676Z,3.40
2018-12-02T10:45:37.138Z,2.60
2018-12-02T10:48:11.234Z,3.30
2018-12-02T10:50:39.710Z,2.30
2018-12-02T10:53:24.855Z,3.60
2018-12-02T10:55:58.402Z,2.87
2018-12-02T10:58:56.830Z,2.57
2018-12-02T11:01:30.529Z,2.30
2018-12-02T11:04:00.410Z,2.90
2018-12-02T11:06:28.893Z,2.20
2018-12-02T11:08:57.464Z,3.60
2018-12-02T11:11:25.897Z,3.43
2018-12-02T11:13:54.355Z,2.03
2018-12-02T11:16:22.850Z,2.30
2018-12-02T11:18:51.353Z,3.07
2018-12-02T11:21:19.813Z,3.30
2018-12-02T11:23:49.102Z,4.23
2018-12-02T11:26:17.642Z,3.13
2018-12-02T11:28:46.115Z,5.90
2018-12-02T11:31:14.576Z,4.27
2018-12-02T11:33:43.760Z,4.77
2018-12-02T11:36:12.206Z,5.50
2018-12-02T11:38:40.687Z,3.97
2018-12-02T11:41:09.170Z,4.80
2018-12-02T11:46:58.589Z,4.20
2018-12-02T11:49:27.691Z,3.97
2018-12-02T11:51:56.382Z,3.87
2018-12-02T11:54:24.887Z,4.00
2018-12-02T11:56:53.399Z,4.20
2018-12-02T11:59:21.884Z,4.27
2018-12-02T12:01:50.371Z,3.70
2018-12-02T12:04:22.312Z,3.67
2018-12-02T12:06:50.752Z,4.00
2018-12-02T12:09:19.234Z,4.83
2018-12-02T12:11:47.690Z,4.13
2018-12-02T12:14:16.141Z,3.97
2018-12-02T12:16:44.655Z,3.50
2018-12-02T12:19:13.138Z,3.33
2018-12-02T12:21:41.786Z,3.53
2018-12-02T12:24:10.241Z,3.73
2018-12-02T12:26:38.748Z,3.53
2018-12-02T12:29:07.231Z,3.43
2018-12-02T12:31:35.699Z,4.80
2018-12-02T12:34:04.155Z,4.20
2018-12-02T12:36:33.625Z,3.40
2018-12-02T12:39:02.076Z,3.80
2018-12-02T12:41:30.863Z,3.53
2018-12-02T12:43:59.584Z,4.30
2018-12-02T12:46:28.011Z,4.83
2018-12-02T12:48:56.672Z,5.93
2018-12-02T12:51:28.733Z,4.50
2018-12-02T12:53:57.208Z,4.70
2018-12-02T12:56:29.540Z,5.80
2018-12-02T12:58:57.975Z,4.20
2018-12-02T13:01:26.443Z,3.90
2018-12-02T13:03:56.065Z,4.60
2018-12-02T13:06:24.669Z,4.07
2018-12-02T13:09:00.719Z,5.33
2018-12-02T13:11:29.290Z,4.67
2018-12-02T13:13:57.757Z,3.03
2018-12-02T13:16:26.222Z,3.00
2018-12-02T13:18:54.747Z,3.90
2018-12-02T13:21:23.260Z,3.30
2018-12-02T13:23:51.730Z,3.17
2018-12-02T13:26:20.188Z,3.80
2018-12-02T13:28:48.696Z,3.80
2018-12-02T13:31:17.164Z,2.77
2018-12-02T13:33:55.836Z,3.53
2018-12-02T13:36:24.310Z,4.43
2018-12-02T13:39:00.119Z,3.27
2018-12-02T13:41:28.583Z,3.23
2018-12-02T13:44:04.257Z,2.73
2018-12-02T13:46:32.734Z,3.30
2018-12-02T13:49:02.035Z,3.83
2018-12-02T13:51:30.485Z,3.17
2018-12-02T13:54:12.343Z,2.77
2018-12-02T13:56:40.827Z,2.50
2018-12-02T13:59:12.881Z,3.23
2018-12-02T14:01:41.860Z,2.40
2018-12-02T14:04:10.312Z,2.93
2018-12-02T14:06:42.727Z,2.47
2018-12-02T14:09:11.187Z,3.30
2018-12-02T14:11:41.549Z,3.20
2018-12-02T14:14:14.251Z,3.00
2018-12-02T14:17:11.713Z,2.47
2018-12-02T14:23:01.923Z,2.33
2018-12-02T14:25:30.410Z,2.53
2018-12-02T14:27:58.871Z,2.40
2018-12-02T14:30:30.911Z,3.27
2018-12-02T14:32:59.366Z,2.23
2018-12-02T14:35:27.858Z,2.30
2018-12-02T14:37:56.305Z,2.20
2018-12-02T14:40:24.775Z,2.50
2018-12-02T14:42:53.205Z,2.30
2018-12-02T14:45:21.676Z,2.37
2018-12-02T14:47:50.144Z,1.93
2018-12-02T14:50:18.848Z,2.53
2018-12-02T14:52:48.811Z,2.23
2018-12-02T14:55:19.268Z,2.37
2018-12-02T14:57:47.782Z,3.67
2018-12-02T15:00:20.227Z,2.10
2018-12-02T15:02:48.684Z,1.43
2018-12-02T15:05:20.560Z,1.90
2018-12-02T15:07:48.911Z,2.43
2018-12-02T15:10:18.419Z,2.40
2018-12-02T15:12:48.138Z,2.17
2018-12-02T15:15:17.674Z,2.37
2018-12-02T15:17:47.231Z,1.63
2018-12-02T15:20:18.823Z,2.10
2018-12-02T15:22:47.254Z,1.77
2018-12-02T15:25:15.768Z,2.07
2018-12-02T15:27:47.387Z,2.37
2018-12-02T15:30:18.112Z,2.10
2018-12-02T15:32:50.606Z,1.83
2018-12-02T15:35:20.381Z,2.40
2018-12-02T15:37:49.530Z,2.10
2018-12-02T15:40:18.542Z,2.30
2018-12-02T15:42:49.347Z,2.07
2018-12-02T15:45:25.449Z,2.37
2018-12-02T15:47:53.963Z,1.63
2018-12-02T15:50:23.510Z,2.17
2018-12-02T15:52:52.506Z,1.73
2018-12-02T15:55:25.587Z,1.63
2018-12-02T15:57:54.396Z,1.53
2018-12-02T16:00:26.943Z,1.40
2018-12-02T16:03:02.819Z,1.87
2018-12-02T16:05:31.275Z,2.40
2018-12-02T16:08:00.833Z,3.00
2018-12-02T16:10:30.039Z,1.80
2018-12-02T16:12:58.538Z,2.20
2018-12-02T16:15:31.326Z,1.90
2018-12-02T16:17:59.817Z,1.70
2018-12-02T16:21:00.275Z,1.97
2018-12-02T16:23:36.766Z,2.53
2018-12-02T16:26:05.255Z,1.97
2018-12-02T16:28:33.728Z,2.73
2018-12-02T16:31:02.205Z,2.70
2018-12-02T16:33:32.021Z,2.43
2018-12-02T16:36:00.492Z,2.37
2018-12-02T16:38:39.281Z,2.67
2018-12-02T16:41:07.771Z,2.57
2018-12-02T16:43:36.226Z,1.97
2018-12-02T16:46:06.546Z,2.60
2018-12-02T16:48:35.064Z,3.00
2018-12-02T16:51:12.319Z,2.90
2018-12-02T16:53:41.233Z,2.57
2018-12-02T16:59:32.946Z,2.40
2018-12-02T17:02:05.212Z,2.80
2018-12-02T17:04:31.251Z,2.63
2018-12-02T17:10:20.898Z,3.30
2018-12-02T17:12:49.389Z,2.97
2018-12-02T17:15:17.858Z,4.77
2018-12-02T17:17:46.306Z,3.50
2018-12-02T17:20:17.000Z,3.63
2018-12-02T17:22:46.057Z,3.00
2018-12-02T17:25:14.916Z,3.53
2018-12-02T17:31:11.550Z,3.03
2018-12-02T17:34:15.186Z,3.57
2018-12-02T17:36:43.691Z,3.33
2018-12-02T17:39:17.071Z,4.23
2018-12-02T17:41:48.418Z,4.27
2018-12-02T17:44:16.876Z,2.60
2018-12-02T17:50:12.841Z,4.30
2018-12-02T17:52:41.976Z,3.53
2018-12-02T17:55:10.407Z,3.63
2018-12-02T17:57:38.885Z,4.10
2018-12-02T18:00:11.511Z,2.77
2018-12-02T18:02:39.970Z,2.60
2018-12-02T18:05:12.117Z,2.80
2018-12-02T18:07:40.577Z,3.13
2018-12-02T18:10:11.020Z,2.70
2018-12-02T18:12:39.549Z,2.80
2018-12-02T18:15:11.264Z,2.33
2018-12-02T18:17:39.718Z,2.80
2018-12-02T18:20:11.191Z,2.67
2018-12-02T18:22:39.964Z,2.93
2018-12-02T18:25:10.156Z,2.90
2018-12-02T18:27:38.617Z,2.80
2018-12-02T18:30:16.452Z,3.73
2018-12-02T18:32:45.002Z,3.20
2018-12-02T18:35:25.594Z,3.63
2018-12-02T18:37:56.302Z,4.20
2018-12-02T18:40:24.769Z,3.33
2018-12-02T18:42:53.233Z,3.23
2018-12-02T18:45:30.310Z,4.60
2018-12-02T18:47:58.826Z,4.30
2018-12-02T18:50:27.275Z,3.90
2018-12-02T18:52:55.786Z,4.20
2018-12-02T18:55:24.227Z,4.20
2018-12-02T18:57:52.745Z,4.10
2018-12-02T19:00:28.125Z,3.90
2018-12-02T19:02:57.444Z,4.37
2018-12-02T19:05:27.823Z,3.90
2018-12-02T19:07:56.388Z,4.03
2018-12-02T19:10:26.382Z,3.87
2018-12-02T19:12:55.075Z,4.13
2018-12-02T19:15:23.558Z,4.97
2018-12-02T19:17:52.045Z,4.00
2018-12-02T19:20:26.970Z,3.50
2018-12-02T19:22:57.662Z,3.23
2018-12-02T19:25:28.242Z,3.33
2018-12-02T19:31:18.085Z,3.33
2018-12-02T19:33:52.046Z,3.60
2018-12-02T19:36:26.351Z,4.57
2018-12-02T19:38:55.775Z,4.27
2018-12-02T19:41:31.751Z,3.03
2018-12-02T19:44:00.252Z,3.57
2018-12-02T19:46:28.755Z,2.90
2018-12-02T19:49:06.145Z,3.60
2018-12-02T19:51:41.974Z,3.70
2018-12-02T19:54:10.467Z,2.93
2018-12-02T19:56:40.887Z,3.80
2018-12-02T19:59:16.796Z,3.60
2018-12-02T20:02:06.455Z,3.10
2018-12-02T20:04:35.016Z,3.93
2018-12-02T20:07:03.494Z,3.60
2018-12-02T20:09:52.980Z,3.70
2018-12-02T20:12:21.511Z,3.87
2018-12-02T20:14:49.978Z,4.47
2018-12-02T20:17:18.432Z,2.93
2018-12-02T20:19:52.264Z,4.83
2018-12-02T20:22:20.834Z,4.90
2018-12-02T20:24:50.010Z,5.63
2018-12-02T20:27:18.572Z,5.50
2018-12-02T20:29:49.057Z,4.87
2018-12-02T20:32:17.555Z,6.40
2018-12-02T20:34:46.019Z,7.17
2018-12-02T20:37:14.522Z,7.13
2018-12-02T20:39:42.986Z,8.53
2018-12-02T20:42:11.455Z,8.60
2018-12-02T20:44:39.944Z,9.00
2018-12-02T20:47:08.496Z,8.97
2018-12-02T20:49:37.718Z,9.17
2018-12-02T20:52:06.970Z,8.93
2018-12-02T20:54:35.430Z,9.97
2018-12-02T20:57:04.041Z,10.27
2018-12-02T20:59:32.653Z,9.30
2018-12-02T21:02:01.163Z,9.97
2018-12-02T21:04:29.776Z,10.10
2018-12-02T21:06:58.317Z,9.87
2018-12-02T21:09:26.853Z,7.57
2018-12-02T21:11:55.818Z,7.43
2018-12-02T21:14:24.399Z,6.73
2018-12-02T21:16:52.863Z,6.63
2018-12-02T21:19:21.345Z,6.60
2018-12-02T21:21:49.879Z,6.87
2018-12-02T21:24:18.363Z,6.17
2018-12-02T21:26:46.876Z,7.23
2018-12-02T21:29:15.498Z,6.17
2018-12-02T21:31:43.997Z,6.93
2018-12-02T21:34:12.662Z,5.10
2018-12-02T21:36:41.153Z,6.10
2018-12-02T21:39:10.523Z,6.20
2018-12-02T21:41:39.031Z,6.00
2018-12-02T21:44:07.559Z,5.47
2018-12-02T21:46:36.082Z,4.70
2018-12-02T21:49:04.949Z,4.63
2018-12-02T21:51:33.446Z,5.90
2018-12-02T21:54:01.948Z,5.67
2018-12-02T21:56:30.421Z,4.93
2018-12-02T21:58:59.031Z,4.77
2018-12-02T22:01:27.511Z,4.90
2018-12-02T22:03:56.030Z,5.60
2018-12-02T22:06:24.518Z,4.53
2018-12-02T22:08:53.044Z,4.90
2018-12-02T22:11:21.511Z,5.17
2018-12-02T22:13:50.018Z,3.97
2018-12-02T22:16:18.510Z,5.90
2018-12-02T22:18:46.985Z,3.70
2018-12-02T22:21:15.448Z,3.67
2018-12-02T22:25:13.136Z,4.57
2018-12-02T22:57:54.142Z,3.53
2018-12-02T23:03:13.627Z,3.77
2018-12-02T23:05:43.240Z,3.07
2018-12-02T23:08:12.004Z,4.13
2018-12-02T23:10:40.524Z,2.37
2018-12-02T23:13:10.050Z,2.77
2018-12-02T23:15:39.583Z,2.50
2018-12-02T23:18:09.208Z,4.80
2018-12-02T23:20:37.738Z,2.73
2018-12-02T23:23:06.287Z,2.30
2018-12-02T23:25:34.914Z,3.53
2018-12-02T23:28:03.368Z,3.93
2018-12-02T23:30:31.842Z,2.57
2018-12-02T23:33:00.287Z,2.70
2018-12-02T23:35:28.718Z,2.77
2018-12-02T23:37:57.155Z,3.93
2018-12-02T23:40:26.942Z,2.97
2018-12-02T23:42:56.352Z,2.73
2018-12-02T23:45:24.799Z,3.20
2018-12-02T23:47:53.254Z,2.77
2018-12-02T23:50:23.385Z,3.40
2018-12-02T23:52:51.855Z,3.03
2018-12-02T23:55:21.344Z,3.67
2018-12-02T23:57:49.865Z,4.10
